Tiempo atmosférico en la estación meteorológica de Sardón De Duero, Valladolid (720 m.)



Fecha
DESCASC
Temp. máxima en grados centígrados (hora)
DESCASC
Temp. mínima en grados centígrados (hora)
DESCASC
Temp. media en grados centígrados
DESCASC
Racha de viento máxima en m/sg (hora)
DESCASC
Velocidad máxima media en intervalos de 10 minutos(hora)
DESCASC
Precipitaciones diarias en mm
DESCASC
Precipitaciones de 00:00 a 06:00 en mm
DESCASC
Precipitaciones de 06:00 a 12:00 en mm
DESCASC
Precipitaciones de 12:00 a 18:00 en mm
DESCASC
Precipitaciones de 18:00 a 24:00 en mm
DESCASC
25-02-2021 17 (16:20) 2.3 (07:30) 9.6 6.11 (14:20) 3.89 (14:20) 0 0 0 0 0
24-02-2021 17 (15:00) -1.1 (03:50) 7.9 13.61 (15:30) 8.33 (15:30) 0 0 0 0 0
23-02-2021 15.3 (15:50) -2.9 (08:00) 6.2 8.89 (14:50) 4.72 (15:00) 0 0 0 0 0
22-02-2021 11.3 (15:10) -1.2 (23:59) 5.1 7.22 (02:40) 3.33 (16:20) 5 4.8 0.2 0 0
21-02-2021 13 (12:00) 4.4 (00:00) 8.7 10 (04:00) 5 (15:10) 5.6 0 0 1.4 4.2
20-02-2021 14.8 (16:20) 1.2 (00:00) 8 12.78 (14:50) 7.78 (17:10) 0 0 0 0 0
19-02-2021 18.4 (16:00) 4 (00:00) 11.2 10.56 (14:50) 6.11 (15:50) 0 0 0 0 0
18-02-2021 15.4 (15:50) 2.5 (00:00) 8.9 15.83 (13:10) 10.28 (13:20) 0 0 0 0 0
17-02-2021 15.6 (16:50) 4 (00:00) 9.8 8.06 (15:10) 5.28 (15:20) 0.2 0.2 0 0 0
16-02-2021 15.3 (13:40) 0.1 (00:00) 7.7 10.83 (13:20) 7.22 (14:20) -- 0 -- 0 0.4
15-02-2021 20 (16:40) -0.8 (-00:0) 9.6 11.11 (21:50) 7.78 (22:20) 0 0 0 0 0
14-02-2021 17.4 (17:40) -1.3 (-00:0) 8 5.28 (13:40) 3.06 (14:20) 0 0 0 0 0
13-02-2021 14.3 (17:20) -1.4 (-00:0) 6.5 6.39 (13:10) 3.89 (13:30) 0 0 0 0 0
12-02-2021 13.1 (16:20) 2 (00:00) 7.6 10 (02:50) 6.11 (10:10) 1.4 1 0.4 0 0
11-02-2021 14 (13:40) 3.9 (00:00) 9 9.17 (11:50) 5.28 (11:50) 0.6 0.2 0 0.4 0
10-02-2021 11.8 (16:20) 1.1 (00:00) 6.5 12.78 (03:20) 7.22 (03:30) 0 0 0 0 0
09-02-2021 7.9 (12:00) 4.2 (00:00) 6 16.67 (12:50) 9.72 (12:10) 2.8 0 0.2 2.6 0
08-02-2021 8.3 (14:20) 5.1 (00:00) 6.7 13.06 (14:00) 8.06 (14:00) 0 0 0 0 0
07-02-2021 8.4 (15:30) -0.2 (00:00) 4.1 10.28 (16:00) 5.83 (15:30) 0 0 0 0 0
06-02-2021 8.4 (00:00) 4.2 (00:00) 6.3 8.61 (00:10) 3.89 (00:10) 0 0 0 0 0
05-02-2021 14.9 (14:40) 2.7 (00:00) 8.8 9.72 (23:20) 5.83 (23:20) 0.4 0 0 0 0.4
04-02-2021 10.1 (13:10) 4.1 (00:00) 7.1 7.78 (13:50) 3.61 (13:50) 0 0 0 0 0
03-02-2021 11.9 (16:10) 7.9 (00:00) 9.9 13.33 (05:30) 8.06 (05:50) 1 0 0.2 0.2 0.6
02-02-2021 13.1 (17:00) 8.3 (23:00) 10.7 11.11 (06:40) 6.67 (22:20) 0 0 0 0 0
01-02-2021 13.7 (17:20) 7.7 (00:00) 10.7 15.28 (02:30) 8.89 (01:10) 0 0 0 0 0
31-01-2021 15.1 (17:20) 6.3 (00:00) 10.7 16.39 (17:00) 9.72 (17:00) 0.2 0 0.2 0 0
30-01-2021 10.3 (02:00) 6 (00:00) 8.2 16.94 (13:50) 10.28 (13:50) 1.2 1.2 0 0 0
29-01-2021 15.6 (16:50) 7.7 (00:00) 11.7 10.28 (22:40) 6.67 (21:00) 0 0 0 0 0
28-01-2021 17.1 (16:10) 6.9 (00:00) 12 6.11 (00:30) 3.89 (00:30) 0 0 0 0 0

Gráficas

Temp. máximas Temp. mínimas Temp. medias Precipitaciones Rachas de viento máximas Velocidades máximas media en intervalos de 10 minutos

Datos horarios

Fecha y hora oficial Temperatura (ºC) Velocidad del viento (km/h) Dirección del viento Racha (km/h) Dirección de racha Precipitación (mm) Presión (hPa) Tendencia (hPa) Humedad (%)
2021-02-26 23:00:00 3.9 3 Este 6 Este 0 -- -- 96
2021-02-26 22:00:00 5.6 5 Este 9 Este 0 -- -- 93
2021-02-26 21:00:00 7.6 3 Nordeste 12 Este 0 -- -- 85
2021-02-26 20:00:00 9.8 6 Este 14 Nordeste 0 -- -- 78
2021-02-26 19:00:00 10.9 5 Nordeste 14 Nordeste 0 -- -- 76
2021-02-26 18:00:00 15.3 4 Este 15 Este 0 -- -- 61
2021-02-26 17:00:00 17.6 6 Este 17 Este 0 -- -- 48
2021-02-26 16:00:00 16.2 8 Nordeste 17 Este 0 -- -- 51
2021-02-26 15:00:00 15.8 9 Este 18 Este 0 -- -- 53
2021-02-26 14:00:00 16.4 9 Este 21 Este 0 -- -- 56
2021-02-26 13:00:00 14.9 8 Este 19 Este 0 -- -- 61
2021-02-26 12:00:00 13.9 10 Este 23 Sudeste 0 -- -- 66
2021-02-26 11:00:00 11.8 11 Este 24 Este 0 -- -- 72
2021-02-26 10:00:00 7.9 10 Este 22 Este 0 -- -- 87
2021-02-26 09:00:00 5.7 5 Nordeste 15 Este 0 -- -- 93
2021-02-26 08:00:00 4.8 6 Nordeste 12 Nordeste 0 -- -- 95
2021-02-26 07:00:00 4.8 4 Nordeste 15 Este 0 -- -- 94
2021-02-26 06:00:00 5.3 7 Este 14 Este 0 -- -- 94
2021-02-26 05:00:00 5.3 6 Este 13 Este 0 -- -- 93
2021-02-26 04:00:00 5.1 4 Este 10 Este 0 -- -- 94
2021-02-26 03:00:00 6.2 4 Este 11 Nordeste 0 -- -- 91
2021-02-26 02:00:00 6.9 6 Este 12 Este 0 -- -- 88
2021-02-26 01:00:00 5.3 5 Nordeste 7 Nordeste 0 -- -- 97
2021-02-26 00:00:00 5.6 0 Calma 6 Este 0 -- -- 96
2021-02-25 23:00:00 6.6 0 Calma 8 Este 0 -- -- 93
2021-02-25 22:00:00 6.7 3 Este 10 Este 0 -- -- 93
2021-02-25 21:00:00 7.3 6 Este 10 Este 0 -- -- 91
2021-02-25 20:00:00 8.6 0 Calma 7 Este 0 -- -- 84
2021-02-25 19:00:00 10.7 3 Este 4 Sudeste 0 -- -- 82
2021-02-25 18:00:00 14.1 3 Sudeste 13 Sudoeste 0 -- -- 63
2021-02-25 17:00:00 15.3 6 Sudoeste 10 Sudoeste 0 -- -- 51
2021-02-25 16:00:00 15.9 6 Sudoeste 18 Sudoeste 0 -- -- 48
2021-02-25 15:00:00 15.7 12 Sudoeste 22 Sudoeste 0 -- -- 49
2021-02-25 14:00:00 15.6 12 Sudoeste 21 Sudoeste 0 -- -- 50
2021-02-25 13:00:00 14.7 8 Sur 17 Sur 0 -- -- 54
2021-02-25 12:00:00 12.6 7 Nordeste 14 Este 0 -- -- 67
2021-02-25 11:00:00 8.9 6 Este 14 Este 0 -- -- 81
2021-02-25 10:00:00 6.6 5 Nordeste 10 Este 0 -- -- 89
2021-02-25 09:00:00 4.6 3 Este 9 Este 0 -- -- 100
2021-02-25 08:00:00 2.7 0 Calma 6 Sudeste 0 -- -- 100
2021-02-25 07:00:00 2.7 4 Este 10 Este 0 -- -- 100
2021-02-25 06:00:00 2.8 6 Este 12 Este 0 -- -- 99
2021-02-25 05:00:00 3.1 4 Este 9 Sudeste 0 -- -- 99
2021-02-25 04:00:00 3.9 2 Este 8 Este 0 -- -- 97
2021-02-25 03:00:00 3.9 6 Este 10 Nordeste 0 -- -- 97
2021-02-25 02:00:00 4.6 6 Este 12 Este 0 -- -- 95
2021-02-25 01:00:00 5 6 Nordeste 10 Nordeste 0 -- -- 93
2021-02-25 00:00:00 6 4 Este 13 Nordeste 0 -- -- 87
2021-02-24 23:00:00 8 5 Nordeste 17 Sur 0 -- -- 79
2021-02-24 22:00:00 10.1 7 Sur 24 Sur 0 -- -- 69
2021-02-24 21:00:00 11.2 16 Sur 33 Sur 0 -- -- 66
2021-02-24 20:00:00 12 21 Sur 37 Sur 0 -- -- 63
2021-02-24 19:00:00 12.6 21 Sur 39 Sur 0 -- -- 60
2021-02-24 18:00:00 14.7 22 Sur 37 Sudoeste 0 -- -- 54
2021-02-24 17:00:00 16.1 22 Sur 44 Sur 0 -- -- 46
2021-02-24 16:00:00 16.4 28 Sudoeste 49 Sudoeste 0 -- -- 45
2021-02-24 15:00:00 17 26 Sudoeste 45 Sur 0 -- -- 44
2021-02-24 14:00:00 16.2 20 Sudoeste 36 Sur 0 -- -- 47
2021-02-24 13:00:00 15.4 10 Sudoeste 27 Sudoeste 0 -- -- 52
2021-02-24 12:00:00 11.8 8 Nordeste 13 Nordeste 0 -- -- 65
2021-02-24 11:00:00 9.5 5 Nordeste 18 Este 0 -- -- 74
2021-02-24 10:00:00 5.1 9 Este 17 Este 0 -- -- 97
2021-02-24 09:00:00 0.8 4 Nordeste 12 Este 0 -- -- 100
2021-02-24 08:00:00 -0.5 7 Este 13 Este 0 -- -- 100
2021-02-24 07:00:00 -0.1 6 Este 13 Este 0 -- -- 100
2021-02-24 06:00:00 -0.5 6 Este 11 Este 0 -- -- 100
2021-02-24 05:00:00 -0.1 6 Este 14 Este 0 -- -- 100
2021-02-24 04:00:00 -1 5 Este 8 Este 0 -- -- 100
2021-02-24 03:00:00 -0.5 4 Este 8 Sudeste 0 -- -- 100
2021-02-24 02:00:00 0.5 5 Este 9 Este 0 -- -- 99
2021-02-24 01:00:00 1.1 4 Este 9 Este 0 -- -- 98
2021-02-24 00:00:00 1.8 5 Nordeste 9 Este 0 -- -- 96
2021-02-23 23:00:00 3.2 4 Este 9 Este 0 -- -- 90
2021-02-23 22:00:00 6.7 3 Este 28 Sur 0 -- -- 76
2021-02-23 21:00:00 9 7 Sur 19 Sur 0 -- -- 67
2021-02-23 20:00:00 9.9 10 Sudoeste 24 Sur 0 -- -- 64
2021-02-23 19:00:00 12 9 Sur 21 Sudoeste 0 -- -- 56
2021-02-23 18:00:00 14.4 14 Sudoeste 25 Sudoeste 0 -- -- 49
2021-02-23 17:00:00 15 14 Sudoeste 28 Sudoeste 0 -- -- 49
2021-02-23 16:00:00 14.9 14 Sudoeste 26 Sur 0 -- -- 51
2021-02-23 15:00:00 14.4 17 Sudoeste 32 Sudoeste 0 -- -- 52
2021-02-23 14:00:00 12.9 13 Oeste 23 Oeste 0 -- -- 56
2021-02-23 13:00:00 12.7 8 Sudoeste 19 Sudoeste 0 -- -- 56
2021-02-23 12:00:00 10.4 5 Nordeste 16 Este 0 -- -- 67
2021-02-23 11:00:00 7 8 Este 15 Este 0 -- -- 80
2021-02-23 10:00:00 3.3 0 Calma 5 Nordeste 0 -- -- 100
2021-02-23 09:00:00 -1.8 0 Calma 6 Este 0 -- -- 100
2021-02-23 08:00:00 -2.9 0 Calma 4 Este 0 -- -- 100
2021-02-23 07:00:00 -1.5 3 Sur 8 Nordeste 0 -- -- 100
2021-02-23 06:00:00 -1.3 3 Nordeste 9 Este 0 -- -- 100
2021-02-23 05:00:00 -1.9 4 Este 10 Este 0 -- -- 100
2021-02-23 04:00:00 -1.7 0 Calma 5 Este 0 -- -- 100
2021-02-23 03:00:00 -1.5 2 Este 6 Este 0 -- -- 100
2021-02-23 02:00:00 -1.9 2 Este 4 Este 0 -- -- 100
2021-02-23 01:00:00 -1.7 0 Calma 3 Sur 0 -- -- 100
2021-02-23 00:00:00 -1.2 0 Calma 5 Este 0 -- -- 100
2021-02-22 23:00:00 -0.8 5 Este 8 Este 0 -- -- 100
2021-02-22 22:00:00 -0.1 0 Calma 5 Este 0 -- -- 98
2021-02-22 21:00:00 0.9 0 Calma 6 Este 0 -- -- 96
2021-02-22 20:00:00 2.9 0 Calma 5 Sudoeste 0 -- -- 92
2021-02-22 19:00:00 8.4 5 Sudoeste 13 Oeste 0 -- -- 73
2021-02-22 18:00:00 10.9 7 Oeste 13 Oeste 0 -- -- 58
2021-02-22 17:00:00 9.7 7 Oeste 20 Oeste 0 -- -- 62
2021-02-22 16:00:00 11.1 4 Oeste 15 Noroeste 0 -- -- 60
2021-02-22 15:00:00 10.5 7 Noroeste 14 Oeste 0 -- -- 65
2021-02-22 14:00:00 9.4 5 Oeste 12 Oeste 0 -- -- 68
2021-02-22 13:00:00 8.2 6 Sudoeste 16 Oeste 0 -- -- 75
2021-02-22 12:00:00 5.7 7 Oeste 17 Oeste 0 -- -- 84
2021-02-22 11:00:00 4.6 11 Oeste 17 Oeste 0 -- -- 88
2021-02-22 10:00:00 3.8 11 Oeste 17 Oeste 0 -- -- 92
2021-02-22 09:00:00 3.6 8 Oeste 13 Oeste 0 -- -- 95
2021-02-22 08:00:00 3.7 4 Oeste 10 Sudoeste 0 -- -- 98
2021-02-22 07:00:00 3.6 6 Sudoeste 9 Sudoeste 0.2 -- -- 100
2021-02-22 06:00:00 3.3 5 Sudoeste 10 Noroeste 0.4 -- -- 98
2021-02-22 05:00:00 3 5 Noroeste 12 Oeste 0.6 -- -- 97
2021-02-22 04:00:00 2.7 3 Oeste 19 Norte 0.8 -- -- 97
2021-02-22 03:00:00 3.6 10 Norte 26 Norte 2 -- -- 97
2021-02-22 02:00:00 3.6 8 Oeste 18 Oeste 0.8 -- -- 97
2021-02-22 01:00:00 3.5 9 Oeste 18 Noroeste 0.2 -- -- 98
2021-02-22 00:00:00 4.4 7 Oeste 15 Oeste 0.6 -- -- 99
2021-02-21 23:00:00 4.7 9 Sudoeste 14 Oeste 0.2 -- -- 97
2021-02-21 22:00:00 4.7 10 Sudoeste 19 Oeste 0.4 -- -- 99
2021-02-21 21:00:00 4.8 14 Oeste 25 Oeste 0.6 -- -- 99
2021-02-21 20:00:00 5.9 14 Oeste 27 Oeste 0.4 -- -- 98
2021-02-21 19:00:00 6.4 9 Oeste 19 Oeste 2 -- -- 98
2021-02-21 18:00:00 7.2 9 Oeste 14 Oeste 1 -- -- 96
2021-02-21 17:00:00 8.2 4 Oeste 10 Oeste 0.4 -- -- 91
2021-02-21 16:00:00 8.8 7 Oeste 28 Sudoeste 0 -- -- 84
2021-02-21 15:00:00 11.6 10 Sur 17 Sur 0 -- -- 69
2021-02-21 14:00:00 12.2 7 Sudeste 22 Sudoeste 0 -- -- 60
2021-02-21 13:00:00 12.6 6 Sudeste 23 Sur 0 -- -- 59
2021-02-21 12:00:00 13 14 Sur 32 Sur 0 -- -- 54
2021-02-21 11:00:00 12.4 9 Sur 23 Sur 0 -- -- 56
2021-02-21 10:00:00 11.4 7 Este 13 Este 0 -- -- 62
2021-02-21 09:00:00 9 5 Sudeste 16 Sudeste 0 -- -- 66
2021-02-21 08:00:00 8.9 9 Sudeste 22 Sudeste 0 -- -- 65
2021-02-21 07:00:00 9.4 5 Sudeste 27 Sudeste 0 -- -- 65
2021-02-21 06:00:00 9.5 10 Sudeste 31 Sudeste 0 -- -- 67
2021-02-21 05:00:00 10 13 Sudeste 35 Sudeste 0 -- -- 66
2021-02-21 04:00:00 10.1 17 Sudeste 36 Sudeste 0 -- -- 63
2021-02-21 03:00:00 7.3 3 Norte 9 Nordeste 0 -- -- 63
2021-02-21 02:00:00 7 6 Este 12 Este 0 -- -- 58
2021-02-21 01:00:00 8.6 5 Este 13 Este 0 -- -- 50
2021-02-21 00:00:00 10.1 7 Este 13 Este 0 -- -- 43
2021-02-20 23:00:00 12.7 9 Sur 28 Sur 0 -- -- 32
2021-02-20 22:00:00 12.7 6 Sudeste 31 Sur 0 -- -- 36
2021-02-20 21:00:00 13 11 Sur 31 Sur 0 -- -- 38
2021-02-20 20:00:00 13.7 20 Sur 45 Sudeste 0 -- -- 35
2021-02-20 19:00:00 14.5 22 Sur 46 Sur 0 -- -- 33
2021-02-20 18:00:00 14.4 18 Sur 44 Sur 0 -- -- 37
2021-02-20 17:00:00 14.5 25 Sur 39 Sur 0 -- -- 36
2021-02-20 16:00:00 14.3 15 Sur 39 Sur 0 -- -- 38
2021-02-20 15:00:00 13.9 20 Sudoeste 46 Sudoeste 0 -- -- 40
2021-02-20 14:00:00 13.7 14 Sudoeste 32 Sudoeste 0 -- -- 37
2021-02-20 13:00:00 13.7 18 Sur 38 Sur 0 -- -- 39
2021-02-20 12:00:00 12.9 18 Sur 44 Sur 0 -- -- 45
2021-02-20 11:00:00 12 17 Sudoeste 36 Sudoeste 0 -- -- 50
2021-02-20 10:00:00 11.2 19 Sudoeste 38 Sudoeste 0 -- -- 54
2021-02-20 09:00:00 11.2 20 Sur 37 Sur 0 -- -- 55
2021-02-20 08:00:00 10.8 17 Sudoeste 41 Sur 0 -- -- 56
2021-02-20 07:00:00 11 21 Sudoeste 43 Sur 0 -- -- 57
2021-02-20 06:00:00 11.2 22 Sur 38 Sur 0 -- -- 50
2021-02-20 05:00:00 11.5 21 Sur 41 Sur 0 -- -- 45
2021-02-20 04:00:00 11.1 22 Sur 37 Sur 0 -- -- 51
2021-02-20 03:00:00 3.8 4 Sur 25 Sur 0 -- -- 94
2021-02-20 02:00:00 1.3 0 Calma 4 Este 0 -- -- 95
2021-02-20 01:00:00 3.3 0 Calma 9 Sudoeste 0 -- -- 86
2021-02-20 00:00:00 7.2 8 Sudoeste 23 Sudoeste 0 -- -- 71
2021-02-19 23:00:00 4.8 3 Norte 8 Este 0 -- -- 84
2021-02-19 22:00:00 4.1 3 Sudeste 8 Sudeste 0 -- -- 84
2021-02-19 21:00:00 7.5 0 Calma 14 Sur 0 -- -- 69
2021-02-19 20:00:00 10.7 7 Sur 15 Sudoeste 0 -- -- 56
2021-02-19 19:00:00 11.9 8 Sudoeste 21 Oeste 0 -- -- 52
2021-02-19 18:00:00 15 18 Oeste 31 Oeste 0 -- -- 40
2021-02-19 17:00:00 16.7 21 Oeste 32 Oeste 0 -- -- 38
2021-02-19 16:00:00 18.4 19 Sudoeste 37 Sur 0 -- -- 38
2021-02-19 15:00:00 17.8 21 Sudoeste 38 Sudoeste 0 -- -- 35
2021-02-19 14:00:00 17.3 18 Sur 30 Sudoeste 0 -- -- 39
2021-02-19 13:00:00 15.6 13 Sudoeste 27 Sur 0 -- -- 48
2021-02-19 12:00:00 14 14 Sudoeste 25 Sudoeste 0 -- -- 49
2021-02-19 11:00:00 12.2 17 Sudoeste 27 Sudoeste 0 -- -- 59
2021-02-19 10:00:00 9.5 7 Oeste 14 Oeste 0 -- -- 69
2021-02-19 09:00:00 7.7 6 Oeste 11 Sudoeste 0 -- -- 73
2021-02-19 08:00:00 5.4 0 Calma 5 Este 0 -- -- 86
2021-02-19 07:00:00 5.8 4 Nordeste 7 Nordeste 0 -- -- 82
2021-02-19 06:00:00 4.9 2 Este 8 Sudoeste 0 -- -- 86
2021-02-19 05:00:00 5.8 2 Nordeste 5 Norte 0 -- -- 81
2021-02-19 04:00:00 8.1 5 Oeste 16 Sudoeste 0 -- -- 69
2021-02-19 03:00:00 9.4 6 Oeste 26 Sudoeste 0 -- -- 64
2021-02-19 02:00:00 9.9 11 Sudoeste 18 Sudoeste 0 -- -- 63
2021-02-19 01:00:00 10.2 11 Sudoeste 24 Sudoeste 0 -- -- 61
2021-02-19 00:00:00 10.3 14 Sudoeste 23 Sudoeste 0 -- -- 64
2021-02-18 23:00:00 7.9 0 Calma 5 Este 0 -- -- 94
2021-02-18 22:00:00 7.9 4 Este 6 Nordeste 0 -- -- 93
2021-02-18 21:00:00 9 5 Sudoeste 6 Oeste 0 -- -- 90
2021-02-18 20:00:00 9.9 5 Sudoeste 23 Oeste 0 -- -- 85
2021-02-18 19:00:00 11 10 Oeste 23 Oeste 0 -- -- 74
2021-02-18 18:00:00 12.8 14 Oeste 36 Oeste 0 -- -- 64
2021-02-18 17:00:00 13.8 23 Oeste 41 Oeste 0 -- -- 57
2021-02-18 16:00:00 14.7 29 Oeste 51 Sudoeste 0 -- -- 52
2021-02-18 15:00:00 13.9 25 Oeste 47 Sudoeste 0 -- -- 53
2021-02-18 14:00:00 14.6 31 Oeste 57 Sudoeste 0 -- -- 50
2021-02-18 13:00:00 14.3 28 Sudoeste 51 Sudoeste 0 -- -- 49
2021-02-18 12:00:00 13.3 27 Sudoeste 50 Sudoeste 0 -- -- 54
2021-02-18 11:00:00 12.9 18 Sudoeste 48 Sudoeste 0 -- -- 50
2021-02-18 10:00:00 10.9 24 Sudoeste 42 Sudoeste 0 -- -- 49
2021-02-18 09:00:00 9.9 12 Sudoeste 38 Sudoeste 0 -- -- 54
2021-02-18 08:00:00 4.6 3 Este 12 Este 0 -- -- 92
2021-02-18 07:00:00 3.7 4 Nordeste 7 Nordeste 0 -- -- 100
2021-02-18 06:00:00 3.2 0 Calma 8 Sudoeste 0 -- -- 100
2021-02-18 05:00:00 2.7 3 Nordeste 9 Este 0 -- -- 99
2021-02-18 04:00:00 3 4 Sur 9 Sur 0 -- -- 97
2021-02-18 03:00:00 5.8 8 Sudoeste 10 Sudoeste 0 -- -- 88
2021-02-18 02:00:00 3.9 0 Calma 9 Sur 0 -- -- 96
2021-02-18 01:00:00 3.5 3 Nordeste 9 Nordeste 0 -- -- 100
2021-02-18 00:00:00 4 0 Calma 9 Sudoeste 0 -- -- 99
2021-02-17 23:00:00 4.2 0 Calma 5 Nordeste 0 -- -- 98
2021-02-17 22:00:00 5.7 3 Sur 9 Sudeste 0 -- -- 96
2021-02-17 21:00:00 6.1 3 Sudeste 7 Este 0 -- -- 94
2021-02-17 20:00:00 8.9 3 Sur 11 Sudoeste 0 -- -- 85
2021-02-17 19:00:00 12 9 Sudoeste 19 Oeste 0 -- -- 74
2021-02-17 18:00:00 13.9 12 Sudoeste 21 Sudoeste 0 -- -- 69
2021-02-17 17:00:00 15.5 10 Oeste 22 Oeste 0 -- -- 66
2021-02-17 16:00:00 14.3 14 Oeste 29 Sudoeste 0 -- -- 68
2021-02-17 15:00:00 14.7 17 Oeste 24 Sudoeste 0 -- -- 69
2021-02-17 14:00:00 12.9 14 Oeste 24 Sudoeste 0 -- -- 75
2021-02-17 13:00:00 12.5 14 Oeste 23 Oeste 0 -- -- 79
2021-02-17 12:00:00 11.9 14 Sudoeste 19 Sudoeste 0 -- -- 82
2021-02-17 11:00:00 9.8 0 Calma 5 Nordeste 0 -- -- 97
2021-02-17 10:00:00 8.3 2 Este 6 Este 0 -- -- 100
2021-02-17 09:00:00 6.9 2 Nordeste 5 Nordeste 0 -- -- 100
2021-02-17 08:00:00 6 2 Nordeste 4 Nordeste 0 -- -- 100
2021-02-17 07:00:00 5.6 0 Calma 4 Este 0 -- -- 100
2021-02-17 06:00:00 6.3 0 Calma 6 Sudoeste 0 -- -- 100
2021-02-17 05:00:00 7.4 4 Sudoeste 6 Sudoeste 0 -- -- 100
2021-02-17 04:00:00 7.4 4 Sudoeste 9 Oeste 0.2 -- -- 100
2021-02-17 03:00:00 6.5 3 Oeste 4 Oeste 0 -- -- 100
2021-02-17 02:00:00 7.3 0 Calma 5 Sur 0 -- -- 100
2021-02-17 01:00:00 8.6 3 Sudoeste 4 Sudoeste 0 -- -- 99
2021-02-17 00:00:00 9.1 4 Oeste 13 Sudoeste 0.4 -- -- 97
2021-02-16 23:00:00 9.8 5 Sudoeste 13 Oeste 0 -- -- 90
2021-02-16 22:00:00 9.8 6 Sudoeste 13 Oeste 0 -- -- 88
2021-02-16 21:00:00 10.3 4 Oeste 8 Sudoeste 0 -- -- 82
2021-02-16 20:00:00 10.7 6 Oeste 16 Oeste 0 -- -- 77
2021-02-16 19:00:00 11.6 8 Oeste 18 Sudoeste 0 -- -- 71
2021-02-16 18:00:00 12.6 12 Oeste 24 Sudoeste 0 -- -- 66
2021-02-16 17:00:00 13.1 15 Sudoeste 30 Sudoeste 0 -- -- 63
2021-02-16 16:00:00 13.6 21 Sudoeste 36 Oeste 0 -- -- 60
2021-02-16 15:00:00 14.1 21 Oeste 38 Oeste 0 -- -- 56
2021-02-16 14:00:00 14.9 25 Oeste 39 Sudoeste 0 -- -- 51
2021-02-16 13:00:00 14.3 20 Oeste 33 Oeste 0 -- -- 58
2021-02-16 12:00:00 12.4 13 Oeste 24 Oeste 0 -- -- 65
2021-02-16 11:00:00 10.5 0 Calma -- -- -- -- -- 74
2021-02-16 10:00:00 -- 3 Nordeste 14 Este 0 -- -- --
2021-02-16 09:00:00 1.2 6 Nordeste 10 Nordeste 0 -- -- 100
2021-02-16 08:00:00 0.3 3 Este 10 Sudeste 0 -- -- 100
2021-02-16 07:00:00 0.4 5 Este 10 Este 0 -- -- 100
2021-02-16 06:00:00 0.8 6 Este 12 Este 0 -- -- 100
2021-02-16 05:00:00 0.8 2 Este 8 Nordeste 0 -- -- 100
2021-02-16 04:00:00 1 4 Este 9 Este 0 -- -- 98
2021-02-16 03:00:00 1.9 3 Este 8 Este 0 -- -- 96
2021-02-16 02:00:00 3.5 3 Este 12 Este 0 -- -- 91
2021-02-16 01:00:00 5.7 5 Nordeste 15 Este 0 -- -- 84
2021-02-16 00:00:00 7.9 6 Este 22 Sudoeste 0 -- -- 77
2021-02-15 23:00:00 10.9 16 Sur 40 Sur 0 -- -- 65
2021-02-15 22:00:00 11.3 26 Sur 40 Sur 0 -- -- 62
2021-02-15 21:00:00 11.7 19 Sudoeste 34 Sudoeste 0 -- -- 59
2021-02-15 20:00:00 12.5 12 Sur 24 Sur 0 -- -- 58
2021-02-15 19:00:00 13.8 10 Sur 27 Oeste 0 -- -- 53
2021-02-15 18:00:00 17.5 17 Sudoeste 27 Sur 0 -- -- 41
2021-02-15 17:00:00 18.7 13 Sudoeste 22 Sudoeste 0 -- -- 36
2021-02-15 16:00:00 19.2 7 Sudeste 19 Este 0 -- -- 44
2021-02-15 15:00:00 17.2 5 Este 20 Nordeste 0 -- -- 58
2021-02-15 14:00:00 15.1 10 Nordeste 17 Nordeste 0 -- -- 63
2021-02-15 13:00:00 14.1 5 Este 16 Nordeste 0 -- -- 67
2021-02-15 12:00:00 12.4 6 Este 15 Este 0 -- -- 69
2021-02-15 11:00:00 8.6 5 Este 13 Este 0 -- -- 87
2021-02-15 10:00:00 3.5 2 Este 5 Este 0 -- -- 100
2021-02-15 09:00:00 0.7 3 Este 9 Este 0 -- -- 100
2021-02-15 08:00:00 -0.8 3 Este 5 Este 0 -- -- 100
2021-02-15 07:00:00 0.4 3 Este 9 Este 0 -- -- 100
2021-02-15 06:00:00 0.1 3 Este 8 Sudeste 0 -- -- 100
2021-02-15 05:00:00 0.4 4 Este 8 Este 0 -- -- 100
2021-02-15 04:00:00 0.9 4 Este 10 Este 0 -- -- 100
2021-02-15 03:00:00 0.7 4 Este 8 Este 0 -- -- 100
2021-02-15 02:00:00 1.2 0 Calma 7 Sudeste 0 -- -- 100
2021-02-15 01:00:00 2.3 3 Sudeste 5 Este 0 -- -- 98
2021-02-15 00:00:00 4.7 2 Sudeste 9 Este 0 -- -- 98
2021-02-14 23:00:00 4.9 3 Nordeste 7 Sudeste 0 -- -- 98
2021-02-14 22:00:00 5.4 3 Este 7 Este 0 -- -- 98
2021-02-14 21:00:00 6.7 0 Calma 6 Nordeste 0 -- -- 96
2021-02-14 20:00:00 7.2 3 Sudeste 6 Sur 0 -- -- 92
2021-02-14 19:00:00 10 0 Calma 8 Sudeste 0 -- -- 85
2021-02-14 18:00:00 16 0 Calma 9 Oeste 0 -- -- 68
2021-02-14 17:00:00 17.1 5 Sudoeste 11 Sudoeste 0 -- -- 52
2021-02-14 16:00:00 15.4 6 Noroeste 14 Oeste 0 -- -- 58
2021-02-14 15:00:00 16 9 Sudoeste 18 Sudoeste 0 -- -- 56
2021-02-14 14:00:00 15.7 8 Sudoeste 19 Sudoeste 0 -- -- 58
2021-02-14 13:00:00 14.1 3 Nordeste 10 Nordeste 0 -- -- 71
2021-02-14 12:00:00 9.8 4 Nordeste 11 Este 0 -- -- 87
2021-02-14 11:00:00 4.6 4 Este 12 Sudeste 0 -- -- 100
2021-02-14 10:00:00 2 5 Este 10 Este 0 -- -- 100
2021-02-14 09:00:00 0.1 3 Este 6 Este 0 -- -- 100
2021-02-14 08:00:00 -0.1 0 Calma 8 Este 0 -- -- 100
2021-02-14 07:00:00 -0.2 3 Este 13 Este 0 -- -- 100
2021-02-14 06:00:00 -1.3 3 Este 4 Este 0 -- -- 100
2021-02-14 05:00:00 -1.1 0 Calma 4 Este 0 -- -- 100
2021-02-14 04:00:00 -0.6 3 Este 5 Este 0 -- -- 100
2021-02-14 03:00:00 -0.3 4 Este 6 Este 0 -- -- 100
2021-02-14 02:00:00 0.6 0 Calma 5 Este 0 -- -- 100
2021-02-14 01:00:00 1 2 Este 5 Nordeste 0 -- -- 100
2021-02-14 00:00:00 1.3 0 Calma 4 Este 0 -- -- 100
2021-02-13 23:00:00 2.4 2 Este 4 Este 0 -- -- 100
2021-02-13 22:00:00 3.7 2 Nordeste 6 Sudeste 0 -- -- 99
2021-02-13 21:00:00 5.4 3 Este 5 Este 0 -- -- 96
2021-02-13 20:00:00 8 2 Sudeste 5 Sur 0 -- -- 91
2021-02-13 19:00:00 10.1 3 Este 7 Oeste 0 -- -- 85
2021-02-13 18:00:00 12 6 Oeste 13 Oeste 0 -- -- 72
2021-02-13 17:00:00 14 9 Oeste 16 Norte 0 -- -- 63
2021-02-13 16:00:00 13.6 6 Oeste 15 Oeste 0 -- -- 62
2021-02-13 15:00:00 12.5 8 Oeste 21 Oeste 0 -- -- 66
2021-02-13 14:00:00 10.6 12 Oeste 23 Oeste 0 -- -- 78
2021-02-13 13:00:00 8.5 10 Oeste 15 Oeste 0 -- -- 89
2021-02-13 08:00:00 -- -- -- -- -- -- -- -- --
2021-02-13 07:00:00 -1 0 Calma 3 Este 0 -- -- 100
2021-02-13 06:00:00 -1.2 0 Calma 3 Este 0 -- -- 100
2021-02-13 05:00:00 -0.4 2 Sur 5 Este 0 -- -- 100
2021-02-13 04:00:00 -0.4 3 Este 6 Nordeste 0 -- -- 100
2021-02-13 03:00:00 -0.1 0 Calma 2 Este 0 -- -- 100
2021-02-13 02:00:00 1.1 0 Calma 3 Sudoeste 0 -- -- 100
2021-02-13 01:00:00 1.6 0 Calma 3 Este 0 -- -- 100
2021-02-13 00:00:00 2 0 Calma 5 Sudoeste 0 -- -- 100
2021-02-12 23:00:00 2.9 0 Calma 4 Oeste 0 -- -- 100
2021-02-12 22:00:00 4.3 0 Calma 10 Sudoeste 0 -- -- 97
2021-02-12 21:00:00 4.7 2 Sudoeste 6 Sudoeste 0 -- -- 97
2021-02-12 20:00:00 7.3 0 Calma 13 Sudoeste 0 -- -- 88
2021-02-12 19:00:00 8.8 5 Oeste 16 Oeste 0 -- -- 87
2021-02-12 18:00:00 12.1 13 Oeste 25 Oeste 0 -- -- 73
2021-02-12 17:00:00 12.4 12 Oeste 24 Oeste 0 -- -- 73
2021-02-12 16:00:00 11.8 10 Oeste 26 Oeste 0 -- -- 73
2021-02-12 15:00:00 12.1 14 Noroeste 30 Oeste 0 -- -- 70
2021-02-12 14:00:00 12.8 18 Oeste 32 Oeste 0 -- -- 68
2021-02-12 13:00:00 10.9 20 Oeste 33 Oeste 0 -- -- 77
2021-02-12 12:00:00 9.9 16 Oeste 29 Oeste 0 -- -- 83
2021-02-12 11:00:00 8.8 19 Oeste 33 Oeste 0 -- -- 91
2021-02-12 10:00:00 8 18 Oeste 30 Oeste 0 -- -- 94
2021-02-12 09:00:00 7.8 19 Oeste 27 Oeste 0 -- -- 95
2021-02-12 08:00:00 8.3 17 Oeste 31 Oeste 0 -- -- 96
2021-02-12 07:00:00 8.4 14 Oeste 32 Oeste 0.4 -- -- 96
2021-02-12 06:00:00 9.3 14 Oeste 28 Oeste 0 -- -- 97
2021-02-12 05:00:00 9.5 18 Oeste 32 Sudoeste 0 -- -- 94
2021-02-12 04:00:00 9.4 17 Sudoeste 33 Sudoeste 0 -- -- 93
2021-02-12 03:00:00 9 15 Oeste 36 Oeste 1 -- -- 96
2021-02-12 02:00:00 8.3 4 Noroeste 14 Sudoeste 0 -- -- 96
2021-02-12 01:00:00 7 5 Oeste 9 Oeste 0 -- -- 100
2021-02-12 00:00:00 6.1 3 Norte 4 Norte 0 -- -- 100
2021-02-11 23:00:00 6.9 0 Calma 9 Oeste 0 -- -- 97
2021-02-11 22:00:00 9.2 8 Oeste 15 Oeste 0 -- -- 92
2021-02-11 21:00:00 10 8 Oeste 15 Oeste 0 -- -- 91
2021-02-11 20:00:00 11.5 10 Sudoeste 21 Sudoeste 0 -- -- 86
2021-02-11 19:00:00 12.2 13 Sudoeste 21 Sudoeste 0 -- -- 86
2021-02-11 18:00:00 12.6 8 Sudoeste 22 Oeste 0 -- -- 94
2021-02-11 17:00:00 12.6 12 Oeste 23 Oeste 0.4 -- -- 92
2021-02-11 16:00:00 13.6 11 Oeste 20 Oeste 0 -- -- 87
2021-02-11 15:00:00 13 15 Oeste 29 Sudoeste 0 -- -- 89
2021-02-11 14:00:00 13.8 17 Oeste 24 Oeste 0 -- -- 80
2021-02-11 13:00:00 12.5 8 Oeste 27 Oeste 0 -- -- 89
2021-02-11 12:00:00 12.2 19 Oeste 33 Sudoeste 0 -- -- 91
2021-02-11 11:00:00 10.9 5 Noroeste 19 Sudoeste 0 -- -- 99
2021-02-11 10:00:00 9.8 10 Sudoeste 18 Sudoeste 0 -- -- 100
2021-02-11 09:00:00 7.6 0 Calma 4 Nordeste 0 -- -- 100
2021-02-11 08:00:00 7.1 0 Calma 4 Este 0 -- -- 100
2021-02-11 07:00:00 7.2 0 Calma 5 Oeste 0 -- -- 100
2021-02-11 06:00:00 6.9 0 Calma 7 Norte 0 -- -- 100
2021-02-11 05:00:00 6.2 5 Norte 8 Norte 0 -- -- 100
2021-02-11 04:00:00 6 3 Norte 9 Oeste 0 -- -- 99
2021-02-11 03:00:00 5.9 0 Calma 17 Sudoeste 0.2 -- -- 98
2021-02-11 02:00:00 6.7 10 Sudoeste 14 Sudoeste 0 -- -- 86
2021-02-11 01:00:00 6 0 Calma 17 Sudoeste 0 -- -- 91
2021-02-11 00:00:00 3.9 0 Calma 4 Este 0 -- -- 100
2021-02-10 23:00:00 2.3 2 Este 7 Sudoeste 0 -- -- 99
2021-02-10 22:00:00 1.8 0 Calma 3 Oeste 0 -- -- 94
2021-02-10 21:00:00 5.1 3 Oeste 11 Oeste 0 -- -- 86
2021-02-10 20:00:00 6.7 4 Oeste 10 Sudoeste 0 -- -- 81
2021-02-10 19:00:00 8 8 Sudoeste 17 Oeste 0 -- -- 73
2021-02-10 18:00:00 9.8 12 Oeste 28 Oeste 0 -- -- 66
2021-02-10 17:00:00 11.6 19 Oeste 30 Oeste 0 -- -- 56
2021-02-10 16:00:00 11.6 17 Oeste 34 Oeste 0 -- -- 60
2021-02-10 15:00:00 11 21 Oeste 30 Oeste 0 -- -- 63
2021-02-10 14:00:00 9.8 18 Oeste 30 Oeste 0 -- -- 64
2021-02-10 13:00:00 8.5 17 Oeste 31 Sudoeste 0 -- -- 75
2021-02-10 12:00:00 6.7 19 Oeste 35 Oeste 0 -- -- 81
2021-02-10 11:00:00 6.7 24 Oeste 37 Oeste 0 -- -- 84
2021-02-10 10:00:00 5.5 21 Oeste 31 Oeste 0 -- -- 92
2021-02-10 09:00:00 4.7 15 Oeste 27 Oeste 0 -- -- 95
2021-02-10 08:00:00 4.6 15 Oeste 32 Oeste 0 -- -- 95
2021-02-10 07:00:00 4.8 16 Oeste 28 Oeste 0 -- -- 95
2021-02-10 06:00:00 4.5 16 Oeste 28 Oeste 0 -- -- 97
2021-02-10 05:00:00 4.4 19 Oeste 38 Oeste 0 -- -- 95
2021-02-10 04:00:00 4.5 21 Oeste 46 Oeste 0 -- -- 93
2021-02-10 03:00:00 4.6 19 Oeste 34 Oeste 0 -- -- 96
2021-02-10 02:00:00 5.1 24 Oeste 40 Oeste 0 -- -- 94
2021-02-10 01:00:00 5.3 19 Sudoeste 39 Sudoeste 0 -- -- 94
2021-02-10 00:00:00 5.8 21 Sudoeste 37 Sudoeste 0 -- -- 92
2021-02-09 23:00:00 5.1 12 Oeste 30 Sudoeste 0 -- -- 94
2021-02-09 22:00:00 4.9 17 Oeste 35 Sudoeste 0 -- -- 93
2021-02-09 21:00:00 5.2 21 Oeste 37 Oeste 0 -- -- 92
2021-02-09 20:00:00 4.6 11 Sudoeste 27 Sudoeste 0 -- -- 93
2021-02-09 19:00:00 4.3 5 Sudoeste 18 Sudoeste 0 -- -- 97
2021-02-09 18:00:00 5.5 13 Oeste 34 Sudoeste 0 -- -- 86
2021-02-09 17:00:00 6.3 19 Sudoeste 36 Sudoeste 0 -- -- 89
2021-02-09 16:00:00 6.2 21 Oeste 37 Sudoeste 0 -- -- 88
2021-02-09 15:00:00 4.7 14 Oeste 38 Noroeste 0 -- -- 94
2021-02-09 14:00:00 4.4 20 Oeste 56 Oeste 1.6 -- -- 95
2021-02-09 13:00:00 7.4 33 Oeste 60 Oeste 1 -- -- 94
2021-02-09 12:00:00 7.9 28 Sudoeste 49 Sudoeste 0.2 -- -- 89
2021-02-09 11:00:00 7.4 30 Sudoeste 49 Sudoeste 0 -- -- 91
2021-02-09 10:00:00 7.4 18 Sudoeste 37 Sudoeste 0 -- -- 88
2021-02-09 09:00:00 6.5 16 Sudoeste 33 Sudoeste 0 -- -- 91
2021-02-09 08:00:00 6.4 20 Sudoeste 33 Sudoeste 0 -- -- 93
2021-02-09 07:00:00 5.6 15 Sudoeste 32 Sudoeste 0 -- -- 96
2021-02-09 06:00:00 5.2 16 Sudoeste 33 Sur 0 -- -- 96
2021-02-09 05:00:00 4.8 15 Sudoeste 26 Sudoeste 0 -- -- 95
2021-02-09 04:00:00 4.8 17 Sudoeste 31 Sudoeste 0 -- -- 93
2021-02-09 03:00:00 5 19 Oeste 41 Oeste 0 -- -- 93
2021-02-09 02:00:00 6.2 22 Oeste 35 Sudoeste 0 -- -- 88
2021-02-09 01:00:00 6.4 19 Oeste 32 Sudoeste 0 -- -- 90
2021-02-09 00:00:00 6.7 23 Oeste 37 Oeste 0 -- -- 91
2021-02-08 23:00:00 6.8 17 Oeste 34 Sudoeste 0 -- -- 90
2021-02-08 22:00:00 7 15 Oeste 27 Oeste 0 -- -- 92
2021-02-08 21:00:00 6.7 13 Oeste 32 Noroeste 0 -- -- 93
2021-02-08 20:00:00 6.2 21 Oeste 32 Oeste 0 -- -- 91
2021-02-08 19:00:00 6.8 20 Oeste 40 Oeste 0 -- -- 88
2021-02-08 18:00:00 7.4 23 Oeste 42 Oeste 0 -- -- 85
2021-02-08 17:00:00 7.2 24 Oeste 45 Oeste 0 -- -- 83
2021-02-08 16:00:00 7 21 Oeste 35 Oeste 0 -- -- 91
2021-02-08 15:00:00 7.5 19 Oeste 44 Oeste 0 -- -- 85
2021-02-08 14:00:00 8.1 29 Oeste 47 Oeste 0 -- -- 78
2021-02-08 13:00:00 7.7 27 Oeste 44 Oeste 0 -- -- 77
2021-02-08 12:00:00 7.1 28 Oeste 42 Oeste 0 -- -- 84
2021-02-08 11:00:00 6.2 20 Oeste 35 Oeste 0 -- -- 92
2021-02-08 10:00:00 5.1 23 Oeste 35 Oeste 0 -- -- 95
2021-02-08 09:00:00 5.3 12 Oeste 33 Oeste 0 -- -- 93
2021-02-08 08:00:00 5.9 21 Oeste 38 Oeste 0 -- -- 91
2021-02-08 07:00:00 5.6 18 Oeste 28 Oeste 0 -- -- 94
2021-02-08 06:00:00 6.2 17 Sudoeste 23 Sudoeste 0 -- -- 96
2021-02-08 05:00:00 6.8 17 Oeste 36 Oeste 0 -- -- 94
2021-02-08 04:00:00 6.8 13 Oeste 21 Oeste 0 -- -- 96
2021-02-08 03:00:00 6.4 9 Oeste 27 Oeste 0 -- -- 96
2021-02-08 02:00:00 6.4 15 Sudoeste 26 Oeste 0 -- -- 96
2021-02-08 01:00:00 5.4 6 Oeste 14 Sudoeste 0 -- -- 99
2021-02-08 00:00:00 5.2 10 Oeste 23 Sudoeste 0 -- -- 97
2021-02-07 23:00:00 5.1 13 Sudoeste 20 Oeste 0 -- -- 95
2021-02-07 22:00:00 4.6 14 Sudoeste 26 Sudoeste 0 -- -- 98
2021-02-07 21:00:00 4.3 15 Oeste 29 Oeste 0 -- -- 97
2021-02-07 20:00:00 4.1 18 Sudoeste 28 Sudoeste 0 -- -- 97
2021-02-07 19:00:00 3.9 15 Oeste 29 Sudoeste 0 -- -- 97
2021-02-07 18:00:00 3.7 11 Oeste 27 Oeste 0 -- -- 97
2021-02-07 17:00:00 4.4 19 Oeste 33 Oeste 0 -- -- 86
2021-02-07 16:00:00 7.2 21 Oeste 37 Oeste 0 -- -- 78
2021-02-07 15:00:00 7.8 18 Oeste 29 Oeste 0 -- -- 72
2021-02-07 14:00:00 8 14 Oeste 27 Oeste 0 -- -- 73
2021-02-07 13:00:00 7.2 17 Oeste 26 Oeste 0 -- -- 72
2021-02-07 12:00:00 6.2 14 Oeste 20 Oeste 0 -- -- 78
2021-02-07 11:00:00 6.3 0 Calma 4 Oeste 0 -- -- 80
2021-02-07 10:00:00 2.2 3 Nordeste 6 Nordeste 0 -- -- 100
2021-02-07 09:00:00 0.6 2 Nordeste 6 Sudeste 0 -- -- 100
2021-02-07 08:00:00 -0.2 0 Calma 3 Este 0 -- -- 100
2021-02-07 07:00:00 0.6 0 Calma 7 Sudeste 0 -- -- 100
2021-02-07 06:00:00 0.1 4 Sudeste 6 Sudeste 0 -- -- 100
2021-02-07 05:00:00 0.5 0 Calma 5 Oeste 0 -- -- 99
2021-02-07 04:00:00 1 2 Sur 4 Este 0 -- -- 95
2021-02-07 03:00:00 2.4 2 Este 8 Este 0 -- -- 93
2021-02-07 02:00:00 3.4 2 Nordeste 10 Este 0 -- -- 89
2021-02-07 01:00:00 3.5 4 Este 17 Sudeste 0 -- -- 88
2021-02-07 00:00:00 4.2 7 Este 14 Este 0 -- -- 86
2021-02-06 23:00:00 4.5 6 Este 24 Este 0 -- -- 85
2021-02-06 22:00:00 4.7 6 Nordeste 21 Nordeste 0 -- -- 89
2021-02-06 21:00:00 4.4 4 Nordeste 14 Nordeste 0 -- -- 93
2021-02-06 20:00:00 5 8 Nordeste 16 Este 0 -- -- 89
2021-02-06 19:00:00 5.5 5 Este 19 Este 0 -- -- 90
2021-02-06 18:00:00 6.1 7 Este 23 Nordeste 0 -- -- 89
2021-02-06 17:00:00 6.6 8 Nordeste 22 Nordeste 0 -- -- 90
2021-02-06 16:00:00 6.3 8 Nordeste 24 Norte 0 -- -- 90
2021-02-06 15:00:00 6.6 9 Nordeste 22 Nordeste 0 -- -- 93
2021-02-06 14:00:00 6.8 8 Nordeste 24 Este 0 -- -- 94
2021-02-06 13:00:00 6.6 8 Nordeste 21 Este 0 -- -- 98
2021-02-06 12:00:00 6.3 9 Nordeste 19 Este 0 -- -- 99
2021-02-06 11:00:00 7 6 Nordeste 16 Nordeste 0 -- -- 97
2021-02-06 10:00:00 6.3 0 Calma 7 Sudoeste 0 -- -- 98
2021-02-06 09:00:00 6.1 3 Sudoeste 6 Oeste 0 -- -- 100
2021-02-06 08:00:00 6.4 4 Oeste 9 Oeste 0 -- -- 99
2021-02-06 07:00:00 6.7 4 Oeste 15 Sudoeste 0 -- -- 98
2021-02-06 06:00:00 7.3 8 Sudoeste 17 Sudoeste 0 -- -- 94
2021-02-06 05:00:00 6.3 2 Sudeste 7 Este 0 -- -- 100
2021-02-06 04:00:00 6.7 4 Este 11 Este 0 -- -- 100
2021-02-06 03:00:00 6.9 4 Este 9 Este 0 -- -- 100
2021-02-06 02:00:00 7.4 2 Nordeste 12 Este 0 -- -- 99
2021-02-06 01:00:00 7.8 0 Calma 31 Sudeste 0 -- -- 98
2021-02-06 00:00:00 8.4 13 Sudeste 35 Sur 0.4 -- -- 98
2021-02-05 23:00:00 7.7 4 Este 12 Sudeste 0 -- -- 100
2021-02-05 22:00:00 7.2 0 Calma 5 Nordeste 0 -- -- 97
2021-02-05 21:00:00 8.2 3 Nordeste 17 Este 0 -- -- 93
2021-02-05 20:00:00 9.5 8 Este 22 Este 0 -- -- 88
2021-02-05 19:00:00 10.4 12 Este 27 Este 0 -- -- 85
2021-02-05 18:00:00 11.8 5 Nordeste 21 Nordeste 0 -- -- 81
2021-02-05 17:00:00 13.8 8 Nordeste 22 Este 0 -- -- 74
2021-02-05 16:00:00 13.7 8 Nordeste 17 Norte 0 -- -- 71
2021-02-05 15:00:00 14.9 7 Nordeste 17 Nordeste 0 -- -- 70
2021-02-05 14:00:00 13.8 7 Nordeste 15 Nordeste 0 -- -- 73
2021-02-05 13:00:00 13.2 5 Nordeste 12 Nordeste 0 -- -- 79
2021-02-05 12:00:00 11.9 3 Nordeste 12 Este 0 -- -- 96
2021-02-05 11:00:00 7.3 0 Calma 5 Sudeste 0 -- -- 100
2021-02-05 10:00:00 6.6 4 Sur 16 Oeste 0 -- -- 100
2021-02-05 09:00:00 5.8 3 Nordeste 13 Este 0 -- -- 100
2021-02-05 08:00:00 5.2 8 Este 16 Este 0 -- -- 100
2021-02-05 07:00:00 5.1 2 Este 6 Nordeste 0 -- -- 100
2021-02-05 06:00:00 5.2 4 Este 8 Este 0 -- -- 100
2021-02-05 05:00:00 5.1 4 Este 10 Este 0 -- -- 100
2021-02-05 04:00:00 4.2 0 Calma 5 Este 0 -- -- 100
2021-02-05 03:00:00 3.2 0 Calma 6 Sudeste 0 -- -- 100
2021-02-05 02:00:00 2.9 4 Sudeste 6 Sudeste 0 -- -- 100
2021-02-05 01:00:00 3.1 0 Calma 3 Sudeste 0 -- -- 100
2021-02-05 00:00:00 4.1 0 Calma 6 Este 0 -- -- 100
2021-02-04 23:00:00 4.7 0 Calma 4 Este 0 -- -- 100
2021-02-04 22:00:00 5.1 0 Calma 6 Este 0 -- -- 100
2021-02-04 21:00:00 4.7 3 Este 8 Este 0 -- -- 100
2021-02-04 20:00:00 6 0 Calma 8 Sudoeste 0 -- -- 98
2021-02-04 19:00:00 6.4 2 Oeste 7 Este 0 -- -- 94
2021-02-04 18:00:00 6.3 5 Nordeste 18 Nordeste 0 -- -- 94
2021-02-04 17:00:00 6.8 8 Norte 19 Norte 0 -- -- 95
2021-02-04 16:00:00 7 7 Norte 24 Norte 0 -- -- 94
2021-02-04 15:00:00 7.3 5 Norte 25 Noroeste 0 -- -- 95
2021-02-04 14:00:00 7.9 12 Norte 28 Norte 0 -- -- 94
2021-02-04 13:00:00 9.9 4 Este 14 Este 0 -- -- 97
2021-02-04 12:00:00 9.1 3 Este 10 Este 0 -- -- 100
2021-02-04 11:00:00 8.2 3 Nordeste 9 Este 0 -- -- 100
2021-02-04 10:00:00 7.9 3 Este 7 Este 0 -- -- 100
2021-02-04 09:00:00 6.8 0 Calma 8 Este 0 -- -- 100
2021-02-04 08:00:00 6.6 3 Este 6 Nordeste 0 -- -- 100
2021-02-04 07:00:00 6.6 2 Este 5 Sudeste 0 -- -- 100
2021-02-04 06:00:00 6.9 4 Sudeste 6 Sudeste 0 -- -- 100
2021-02-04 05:00:00 7.4 2 Este 11 Sudoeste 0 -- -- 99
2021-02-04 04:00:00 8.2 6 Sudoeste 11 Sudoeste 0 -- -- 94
2021-02-04 03:00:00 8.2 3 Sudoeste 11 Sudoeste 0 -- -- 98
2021-02-04 02:00:00 8.5 6 Sudoeste 12 Sudoeste 0 -- -- 97
2021-02-04 01:00:00 8.6 4 Noroeste 10 Sudoeste 0 -- -- 100
2021-02-04 00:00:00 8.1 2 Nordeste 5 Oeste 0 -- -- 100
2021-02-03 23:00:00 8 3 Noroeste 11 Sudoeste 0 -- -- 99
2021-02-03 22:00:00 8 3 Sudoeste 9 Sudoeste 0 -- -- 99
2021-02-03 21:00:00 7.9 5 Sudoeste 27 Oeste 0.6 -- -- 99
2021-02-03 20:00:00 9.5 11 Sur 19 Sudoeste 0 -- -- 95
2021-02-03 19:00:00 9.1 3 Este 6 Sudoeste 0 -- -- 98
2021-02-03 18:00:00 9.6 0 Calma 5 Sudoeste 0 -- -- 96
2021-02-03 17:00:00 9.5 4 Oeste 21 Noroeste 0 -- -- 95
2021-02-03 16:00:00 11 9 Noroeste 19 Oeste 0 -- -- 94
2021-02-03 15:00:00 10.4 4 Oeste 15 Oeste 0 -- -- 94
2021-02-03 14:00:00 9.7 11 Oeste 18 Noroeste 0.2 -- -- 97
2021-02-03 13:00:00 9.8 10 Oeste 20 Oeste 0 -- -- 94
2021-02-03 12:00:00 9 4 Oeste 18 Oeste 0 -- -- 99
2021-02-03 11:00:00 8.5 10 Oeste 39 Oeste 0.2 -- -- 98
2021-02-03 10:00:00 9.8 18 Oeste 48 Sudoeste 0 -- -- 89
2021-02-03 09:00:00 10.3 23 Sudoeste 37 Sudoeste 0 -- -- 84
2021-02-03 08:00:00 10 18 Sudoeste 45 Oeste 0 -- -- 84
2021-02-03 07:00:00 9.5 22 Sudoeste 39 Sudoeste 0 -- -- 83
2021-02-03 06:00:00 9.5 21 Oeste 48 Sudoeste 0 -- -- 82
2021-02-03 05:00:00 9.9 26 Sudoeste 45 Sudoeste 0 -- -- 78
2021-02-03 04:00:00 9.2 13 Oeste 30 Sudoeste 0 -- -- 79
2021-02-03 03:00:00 8.1 9 Sudoeste 19 Sudoeste 0 -- -- 83
2021-02-03 02:00:00 7.9 10 Sur 27 Sudoeste 0 -- -- 82
2021-02-03 01:00:00 9.4 17 Sudoeste 35 Sudoeste 0 -- -- 73
2021-02-03 00:00:00 9.1 15 Sudoeste 34 Sudoeste 0 -- -- 80
2021-02-02 23:00:00 8.3 15 Sudoeste 34 Sudoeste 0 -- -- 85
2021-02-02 22:00:00 9.3 23 Sudoeste 30 Sudoeste 0 -- -- 81
2021-02-02 21:00:00 10.2 9 Oeste 21 Oeste 0 -- -- 81
2021-02-02 20:00:00 10.6 13 Sudoeste 30 Oeste 0 -- -- 80
2021-02-02 19:00:00 11.3 15 Sudoeste 24 Oeste 0 -- -- 79
2021-02-02 18:00:00 12.1 6 Sudoeste 21 Sudoeste 0 -- -- 78
2021-02-02 17:00:00 13.1 11 Oeste 19 Oeste 0 -- -- 74
2021-02-02 16:00:00 12.3 16 Oeste 33 Sudoeste 0 -- -- 76
2021-02-02 15:00:00 12.6 16 Oeste 25 Oeste 0 -- -- 80
2021-02-02 14:00:00 12.4 14 Oeste 26 Sudoeste 0 -- -- 80
2021-02-02 13:00:00 11.4 15 Oeste 27 Sudoeste 0 -- -- 84
2021-02-02 12:00:00 10.8 17 Oeste 27 Oeste 0 -- -- 89
2021-02-02 11:00:00 9.7 12 Oeste 24 Oeste 0 -- -- 98
2021-02-02 10:00:00 9.7 11 Oeste 20 Sudoeste 0 -- -- 96
2021-02-02 09:00:00 9.6 13 Sudoeste 22 Sudoeste 0 -- -- 95
2021-02-02 08:00:00 9.3 9 Oeste 26 Oeste 0 -- -- 97
2021-02-02 07:00:00 9.5 18 Oeste 40 Sudoeste 0 -- -- 98
2021-02-02 06:00:00 10.2 21 Sudoeste 33 Sudoeste 0 -- -- 92
2021-02-02 05:00:00 10.2 19 Sudoeste 32 Sudoeste 0 -- -- 92
2021-02-02 04:00:00 10.5 16 Sudoeste 26 Sudoeste 0 -- -- 92
2021-02-02 03:00:00 10.4 12 Oeste 30 Sudoeste 0 -- -- 90
2021-02-02 02:00:00 10.3 15 Oeste 36 Oeste 0 -- -- 90
2021-02-02 01:00:00 10.1 11 Oeste 23 Oeste 0 -- -- 87
2021-02-02 00:00:00 10 16 Oeste 33 Oeste 0 -- -- 85
2021-02-01 23:00:00 10 20 Oeste 32 Sudoeste 0 -- -- 82
2021-02-01 22:00:00 9.5 14 Sudoeste 26 Oeste 0 -- -- 84
2021-02-01 21:00:00 9.7 17 Oeste 27 Sudoeste 0 -- -- 84
2021-02-01 20:00:00 10.7 23 Oeste 34 Oeste 0 -- -- 79
2021-02-01 19:00:00 10.7 13 Oeste 30 Oeste 0 -- -- 76
2021-02-01 18:00:00 12.8 19 Oeste 37 Oeste 0 -- -- 68
2021-02-01 17:00:00 13.3 22 Oeste 35 Oeste 0 -- -- 67
2021-02-01 16:00:00 12.5 21 Oeste 41 Oeste 0 -- -- 70
2021-02-01 15:00:00 12.3 23 Oeste 42 Oeste 0 -- -- 71
2021-02-01 14:00:00 12.1 30 Oeste 46 Oeste 0 -- -- 74
2021-02-01 13:00:00 11.7 19 Oeste 35 Oeste 0 -- -- 77
2021-02-01 12:00:00 10.8 24 Oeste 43 Oeste 0 -- -- 78
2021-02-01 11:00:00 9.4 18 Oeste 37 Oeste 0 -- -- 84
2021-02-01 10:00:00 8 21 Oeste 41 Oeste 0 -- -- 89
2021-02-01 09:00:00 7.9 24 Oeste 40 Oeste 0 -- -- 87
2021-02-01 08:00:00 7.9 18 Oeste 34 Sudoeste 0 -- -- 87
2021-02-01 07:00:00 8 18 Sudoeste 33 Oeste 0 -- -- 85
2021-02-01 06:00:00 7.9 20 Sudoeste 36 Sudoeste 0 -- -- 85
2021-02-01 05:00:00 8.1 21 Oeste 42 Oeste 0 -- -- 83
2021-02-01 04:00:00 8.2 21 Oeste 46 Oeste 0 -- -- 81
2021-02-01 03:00:00 8.7 28 Oeste 55 Oeste 0 -- -- 81
2021-02-01 02:00:00 9.2 29 Oeste 51 Oeste 0 -- -- 82
2021-02-01 01:00:00 9.8 31 Oeste 50 Oeste 0 -- -- 82
2021-02-01 00:00:00 10.2 28 Oeste 47 Oeste 0 -- -- 84
2021-01-31 23:00:00 10.3 22 Oeste 42 Oeste 0 -- -- 83
2021-01-31 22:00:00 10.2 18 Oeste 46 Oeste 0 -- -- 84
2021-01-31 21:00:00 11.2 26 Oeste 51 Oeste 0 -- -- 76
2021-01-31 20:00:00 12.5 24 Oeste 42 Oeste 0 -- -- 69
2021-01-31 19:00:00 12.9 19 Oeste 42 Oeste 0 -- -- 71
2021-01-31 18:00:00 14.7 26 Oeste 44 Oeste 0 -- -- 69
2021-01-31 17:00:00 14.5 35 Oeste 59 Oeste 0 -- -- 70
2021-01-31 16:00:00 13.4 19 Oeste 36 Oeste 0 -- -- 83
2021-01-31 15:00:00 11.4 12 Oeste 28 Oeste 0 -- -- 92
2021-01-31 14:00:00 10 18 Oeste 34 Oeste 0 -- -- 96
2021-01-31 13:00:00 9.6 20 Oeste 40 Oeste 0 -- -- 96
2021-01-31 12:00:00 8.5 15 Oeste 35 Oeste 0.2 -- -- 98
2021-01-31 11:00:00 7.9 18 Sudoeste 30 Oeste 0 -- -- 95
2021-01-31 10:00:00 7.4 18 Sudoeste 30 Oeste 0 -- -- 91
2021-01-31 09:00:00 6.9 16 Oeste 33 Sudoeste 0 -- -- 91
2021-01-31 08:00:00 7 20 Oeste 41 Oeste 0 -- -- 85
2021-01-31 07:00:00 6.7 25 Oeste 40 Oeste 0 -- -- 83
2021-01-31 06:00:00 6.3 18 Oeste 35 Oeste 0 -- -- 84
2021-01-31 05:00:00 6.4 20 Oeste 31 Oeste 0 -- -- 82
2021-01-31 04:00:00 6.3 18 Oeste 36 Oeste 0 -- -- 81
2021-01-31 03:00:00 6.5 18 Oeste 40 Oeste 0 -- -- 83
2021-01-31 02:00:00 6.5 26 Oeste 40 Oeste 0 -- -- 84
2021-01-31 01:00:00 6.4 21 Oeste 43 Oeste 0 -- -- 83
2021-01-31 00:00:00 6.3 17 Oeste 38 Oeste 0 -- -- 82
2021-01-30 23:00:00 6.1 21 Oeste 40 Oeste 0 -- -- 82
2021-01-30 22:00:00 6.1 22 Oeste 42 Oeste 0 -- -- 83
2021-01-30 21:00:00 6.3 22 Oeste 44 Oeste 0 -- -- 81
2021-01-30 20:00:00 6.8 28 Oeste 49 Oeste 0 -- -- 85
2021-01-30 19:00:00 7.4 31 Oeste 49 Oeste 0 -- -- 83
2021-01-30 18:00:00 8.2 23 Oeste 51 Oeste 0 -- -- 76
2021-01-30 17:00:00 9.5 31 Oeste 54 Oeste 0 -- -- 69
2021-01-30 16:00:00 10 35 Oeste 53 Oeste 0 -- -- 66
2021-01-30 15:00:00 9.4 29 Oeste 54 Oeste 0 -- -- 70
2021-01-30 14:00:00 9.4 31 Oeste 61 Oeste 0 -- -- 71
2021-01-30 13:00:00 9.2 30 Oeste 56 Oeste 0 -- -- 68
2021-01-30 12:00:00 9.1 32 Oeste 57 Oeste 0 -- -- 70
2021-01-30 11:00:00 9.2 27 Oeste 48 Oeste 0 -- -- 80
2021-01-30 10:00:00 7.7 22 Oeste 43 Oeste 0 -- -- 89
2021-01-30 09:00:00 7.6 21 Oeste 40 Oeste 0 -- -- 90
2021-01-30 08:00:00 8 23 Oeste 35 Oeste 0 -- -- 92
2021-01-30 07:00:00 7.9 19 Oeste 32 Oeste 0 -- -- 94
2021-01-30 06:00:00 8 16 Oeste 31 Oeste 0 -- -- 93
2021-01-30 05:00:00 7.7 18 Oeste 41 Oeste 1 -- -- 96
2021-01-30 04:00:00 9 18 Sudoeste 42 Sudoeste 0.2 -- -- 96
2021-01-30 03:00:00 10.1 26 Sudoeste 42 Sudoeste 0 -- -- 89
2021-01-30 02:00:00 10.3 21 Oeste 33 Oeste 0 -- -- 87
2021-01-30 01:00:00 10.2 22 Sudoeste 36 Sudoeste 0 -- -- 89
2021-01-30 00:00:00 9.9 18 Oeste 29 Sudoeste 0 -- -- 90
2021-01-29 23:00:00 10 17 Sudoeste 37 Oeste 0 -- -- 90
2021-01-29 22:00:00 10 12 Oeste 32 Sudoeste 0 -- -- 91
2021-01-29 21:00:00 12.2 24 Sudoeste 35 Sudoeste 0 -- -- 83
2021-01-29 20:00:00 8.1 0 Calma 6 Oeste 0 -- -- 97
2021-01-29 19:00:00 10.3 3 Sudoeste 15 Sudoeste 0 -- -- 89
2021-01-29 18:00:00 14.6 9 Sudoeste 23 Oeste 0 -- -- 75
2021-01-29 17:00:00 15.5 15 Oeste 24 Oeste 0 -- -- 71
2021-01-29 16:00:00 15.2 17 Sudoeste 25 Sudoeste 0 -- -- 73
2021-01-29 15:00:00 14.7 16 Sudoeste 28 Sudoeste 0 -- -- 77
2021-01-29 14:00:00 13.4 13 Oeste 22 Oeste 0 -- -- 81
2021-01-29 13:00:00 12.4 12 Oeste 19 Oeste 0 -- -- 87
2021-01-29 12:00:00 11.4 10 Oeste 23 Oeste 0 -- -- 91
2021-01-29 11:00:00 11.1 15 Oeste 25 Oeste 0 -- -- 91
2021-01-29 10:00:00 10.7 13 Oeste 23 Sudoeste 0 -- -- 93
2021-01-29 09:00:00 10.1 11 Sudoeste 22 Oeste 0 -- -- 95
2021-01-29 08:00:00 9.6 14 Oeste 32 Sudoeste 0 -- -- 98
2021-01-29 07:00:00 9.7 20 Sudoeste 29 Sudoeste 0 -- -- 97
2021-01-29 06:00:00 10.4 16 Sudoeste 23 Sudoeste 0 -- -- 96
2021-01-29 05:00:00 9.2 8 Oeste 21 Sudoeste 0 -- -- 98
2021-01-29 04:00:00 10.4 13 Oeste 19 Sudoeste 0 -- -- 96
2021-01-29 03:00:00 9.5 6 Oeste 11 Oeste 0 -- -- 95
2021-01-29 02:00:00 10.7 8 Oeste 17 Oeste 0 -- -- 91
2021-01-29 01:00:00 10.1 8 Oeste 14 Oeste 0 -- -- 96
2021-01-29 00:00:00 9.8 8 Oeste 13 Oeste 0 -- -- 100
2021-01-28 23:00:00 8 4 Norte 8 Norte 0 -- -- 100
2021-01-28 22:00:00 7.3 0 Calma 4 Sur 0 -- -- 100
2021-01-28 21:00:00 8.8 3 Norte 5 Noroeste 0 -- -- 100
2021-01-28 20:00:00 9.7 0 Calma 6 Sur 0 -- -- 98
2021-01-28 19:00:00 12.6 4 Sur 7 Sudoeste 0 -- -- 90
2021-01-28 18:00:00 16.2 6 Oeste 9 Oeste 0 -- -- 81
2021-01-28 17:00:00 16.4 6 Oeste 9 Oeste 0 -- -- 80
2021-01-28 16:00:00 16.7 5 Oeste 13 Oeste 0 -- -- 77
2021-01-28 15:00:00 16 9 Oeste 18 Oeste 0 -- -- 78
2021-01-28 14:00:00 15.3 9 Oeste 17 Oeste 0 -- -- 82
2021-01-28 13:00:00 12.9 8 Noroeste 13 Oeste 0 -- -- 90
2021-01-28 12:00:00 10.7 9 Oeste 12 Sudoeste 0 -- -- 100
2021-01-28 11:00:00 9.6 4 Sudoeste 7 Sudoeste 0 -- -- 100
2021-01-28 10:00:00 8.3 2 Oeste 5 Sudoeste 0 -- -- 100
2021-01-28 09:00:00 7.3 4 Sudoeste 6 Sur 0 -- -- 100
2021-01-28 08:00:00 7.4 4 Oeste 7 Oeste 0 -- -- 100
2021-01-28 07:00:00 7.7 4 Oeste 9 Sudoeste 0 -- -- 100
2021-01-28 06:00:00 9 8 Sudoeste 16 Sudoeste 0 -- -- 100
2021-01-28 05:00:00 9.5 9 Sudoeste 18 Sudoeste 0 -- -- 100
2021-01-28 04:00:00 9.9 12 Oeste 20 Sudoeste 0 -- -- 100
2021-01-28 03:00:00 9.9 13 Sudoeste 18 Sudoeste 0 -- -- 100
2021-01-28 02:00:00 10 9 Sudoeste 17 Oeste 0 -- -- 100
2021-01-28 01:00:00 10.2 14 Oeste 22 Oeste 0 -- -- 100
2021-01-28 00:00:00 10.1 8 Oeste 19 Oeste 0 -- -- 100